createdAt,value
2018-06-23T00:01:44.708Z,11.30
2018-06-23T00:04:12.224Z,11.40
2018-06-23T00:06:39.798Z,11.30
2018-06-23T00:09:07.353Z,11.20
2018-06-23T00:11:34.867Z,11.10
2018-06-23T00:14:03.168Z,11.10
2018-06-23T00:16:30.721Z,11.10
2018-06-23T00:18:58.245Z,11.10
2018-06-23T00:21:26.559Z,11.20
2018-06-23T00:23:54.078Z,11.10
2018-06-23T00:26:21.628Z,11.10
2018-06-23T00:28:49.156Z,11.10
2018-06-23T00:31:16.708Z,11.00
2018-06-23T00:33:44.237Z,10.90
2018-06-23T00:36:13.504Z,10.70
2018-06-23T00:38:41.060Z,10.70
2018-06-23T00:41:08.589Z,10.80
2018-06-23T00:43:36.118Z,10.70
2018-06-23T00:46:05.645Z,10.80
2018-06-23T00:48:33.172Z,10.80
2018-06-23T00:51:01.488Z,10.80
2018-06-23T00:53:30.988Z,10.70
2018-06-23T00:55:58.532Z,10.80
2018-06-23T00:58:26.085Z,10.80
2018-06-23T01:00:53.634Z,10.60
2018-06-23T01:03:21.948Z,10.70
2018-06-23T01:05:49.482Z,10.60
2018-06-23T01:08:16.999Z,10.60
2018-06-23T01:10:46.052Z,10.50
2018-06-23T01:13:13.572Z,10.50
2018-06-23T01:15:41.903Z,10.50
2018-06-23T01:18:09.467Z,10.50
2018-06-23T01:20:37.016Z,10.50
2018-06-23T01:23:05.512Z,10.50
2018-06-23T01:25:33.072Z,10.40
2018-06-23T01:28:00.768Z,10.30
2018-06-23T01:30:28.316Z,10.30
2018-06-23T01:32:55.870Z,10.20
2018-06-23T01:35:23.444Z,10.20
2018-06-23T01:37:50.969Z,10.20
2018-06-23T01:40:18.516Z,10.10
2018-06-23T01:42:46.072Z,10.10
2018-06-23T01:45:14.567Z,10.10
2018-06-23T01:47:42.122Z,10.10
2018-06-23T01:50:09.685Z,10.10
2018-06-23T01:52:37.217Z,10.10
2018-06-23T01:55:04.788Z,10.10
2018-06-23T01:57:32.349Z,10.10
2018-06-23T01:59:59.892Z,10.00
2018-06-23T02:02:27.408Z,9.90
2018-06-23T02:04:55.732Z,9.90
2018-06-23T02:07:23.248Z,9.90
2018-06-23T02:09:50.795Z,9.80
2018-06-23T02:12:18.316Z,9.70
2018-06-23T02:14:45.837Z,9.80
2018-06-23T02:17:19.015Z,9.70
2018-06-23T02:23:01.434Z,9.70
2018-06-23T02:28:38.921Z,9.70
2018-06-23T02:31:06.468Z,9.60
2018-06-23T02:33:33.991Z,9.60
2018-06-23T02:36:01.539Z,9.60
2018-06-23T02:38:31.040Z,9.60
2018-06-23T02:40:59.317Z,9.60
2018-06-23T02:43:27.626Z,9.60
2018-06-23T02:45:55.175Z,9.60
2018-06-23T02:48:22.697Z,9.60
2018-06-23T02:50:50.250Z,9.50
2018-06-23T02:53:19.741Z,9.50
2018-06-23T02:55:47.264Z,9.50
2018-06-23T02:58:14.813Z,9.50
2018-06-23T03:00:42.338Z,9.50
2018-06-23T03:03:09.884Z,9.50
2018-06-23T03:05:38.400Z,9.40
2018-06-23T03:08:05.935Z,9.30
2018-06-23T03:10:33.490Z,9.40
2018-06-23T03:13:01.033Z,9.40
2018-06-23T03:15:28.556Z,9.40
2018-06-23T03:17:56.135Z,9.40
2018-06-23T03:20:23.648Z,9.40
2018-06-23T03:22:51.172Z,9.40
2018-06-23T03:25:18.724Z,9.30
2018-06-23T03:27:46.252Z,9.30
2018-06-23T03:30:13.795Z,9.30
2018-06-23T03:32:41.324Z,9.30
2018-06-23T03:35:08.842Z,9.40
2018-06-23T03:37:36.388Z,9.30
2018-06-23T03:40:03.920Z,9.30
2018-06-23T03:42:31.464Z,9.30
2018-06-23T03:44:59.768Z,9.40
2018-06-23T03:47:27.290Z,9.40
2018-06-23T03:49:54.850Z,9.40
2018-06-23T03:52:22.387Z,9.50
2018-06-23T03:54:49.901Z,9.30
2018-06-23T03:57:17.455Z,9.30
2018-06-23T03:59:44.977Z,9.30
2018-06-23T04:02:12.529Z,9.40
2018-06-23T04:04:40.056Z,9.40
2018-06-23T04:07:07.610Z,9.30
2018-06-23T04:09:35.132Z,9.40
2018-06-23T04:12:03.605Z,9.50
2018-06-23T04:14:31.178Z,9.60
2018-06-23T04:16:59.907Z,9.70
2018-06-23T04:19:27.459Z,9.70
2018-06-23T04:21:55.006Z,9.80
2018-06-23T04:24:22.550Z,9.90
2018-06-23T04:26:50.113Z,9.90
2018-06-23T04:29:17.666Z,9.90
2018-06-23T04:31:45.226Z,10.00
2018-06-23T04:34:12.753Z,10.10
2018-06-23T04:36:41.031Z,10.10
2018-06-23T04:39:08.580Z,10.10
2018-06-23T04:41:37.041Z,10.20
2018-06-23T04:44:04.555Z,10.20
2018-06-23T04:46:32.868Z,10.40
2018-06-23T04:49:00.389Z,10.40
2018-06-23T04:51:27.936Z,10.50
2018-06-23T04:53:57.223Z,10.70
2018-06-23T04:56:26.243Z,10.80
2018-06-23T04:58:53.794Z,10.80
2018-06-23T05:01:22.086Z,11.10
2018-06-23T05:03:49.612Z,11.10
2018-06-23T05:06:17.180Z,11.10
2018-06-23T05:08:44.704Z,11.00
2018-06-23T05:11:12.254Z,11.00
2018-06-23T05:13:39.784Z,11.10
2018-06-23T05:16:07.358Z,11.20
2018-06-23T05:18:34.912Z,11.30
2018-06-23T05:21:02.721Z,11.50
2018-06-23T05:23:31.642Z,11.70
2018-06-23T05:25:59.304Z,11.60
2018-06-23T05:28:26.799Z,11.80
2018-06-23T05:30:54.364Z,11.80
2018-06-23T05:33:21.924Z,12.00
2018-06-23T05:35:49.453Z,12.00
2018-06-23T05:38:17.018Z,12.20
2018-06-23T05:40:44.571Z,12.30
2018-06-23T05:43:12.092Z,12.20
2018-06-23T05:45:39.657Z,12.40
2018-06-23T05:48:07.184Z,12.50
2018-06-23T05:50:34.745Z,12.40
2018-06-23T05:53:02.270Z,12.40
2018-06-23T05:55:29.821Z,12.30
2018-06-23T05:57:57.396Z,12.30
2018-06-23T06:00:24.917Z,12.30
2018-06-23T06:02:52.448Z,12.30
2018-06-23T06:05:20.000Z,12.30
2018-06-23T06:07:47.529Z,12.40
2018-06-23T06:10:15.100Z,12.80
2018-06-23T06:12:42.649Z,13.00
2018-06-23T06:15:10.179Z,13.10
2018-06-23T06:17:37.730Z,13.30
2018-06-23T06:20:06.026Z,13.70
2018-06-23T06:22:33.597Z,13.70
2018-06-23T06:25:01.159Z,13.90
2018-06-23T06:27:29.660Z,14.10
2018-06-23T06:29:57.229Z,14.30
2018-06-23T06:32:24.762Z,14.40
2018-06-23T06:34:52.290Z,14.40
2018-06-23T06:37:19.843Z,14.20
2018-06-23T06:39:49.101Z,14.30
2018-06-23T06:42:18.145Z,14.10
2018-06-23T06:44:45.713Z,14.10
2018-06-23T06:47:13.253Z,14.10
2018-06-23T06:49:43.519Z,14.30
2018-06-23T06:52:11.076Z,14.30
2018-06-23T06:54:38.629Z,14.20
2018-06-23T06:57:06.727Z,14.20
2018-06-23T06:59:35.542Z,14.60
2018-06-23T07:02:03.098Z,14.60
2018-06-23T07:04:30.617Z,14.90
2018-06-23T07:06:58.195Z,15.20
2018-06-23T07:09:25.747Z,15.40
2018-06-23T07:11:54.241Z,15.20
2018-06-23T07:14:21.788Z,15.40
2018-06-23T07:16:49.343Z,15.30
2018-06-23T07:19:16.901Z,15.40
2018-06-23T07:21:44.427Z,15.50
2018-06-23T07:24:12.003Z,15.70
2018-06-23T07:26:39.536Z,16.00
2018-06-23T07:29:07.855Z,16.00
2018-06-23T07:31:35.392Z,15.90
2018-06-23T07:34:02.916Z,16.10
2018-06-23T07:36:30.497Z,16.30
2018-06-23T07:38:58.075Z,16.50
2018-06-23T07:41:25.648Z,16.60
2018-06-23T07:43:53.177Z,16.70
2018-06-23T07:46:20.762Z,16.60
2018-06-23T07:48:50.298Z,16.50
2018-06-23T07:51:18.604Z,16.60
2018-06-23T07:53:46.922Z,16.70
2018-06-23T07:56:14.516Z,16.70
2018-06-23T07:58:42.042Z,16.50
2018-06-23T08:01:09.604Z,16.60
2018-06-23T08:03:37.173Z,16.70
2018-06-23T08:06:04.714Z,16.70
2018-06-23T08:08:32.261Z,16.50
2018-06-23T08:10:59.796Z,16.60
2018-06-23T08:13:28.105Z,16.60
2018-06-23T08:15:55.955Z,16.50
2018-06-23T08:18:23.499Z,16.90
2018-06-23T08:20:51.812Z,17.10
2018-06-23T08:23:19.363Z,17.10
2018-06-23T08:25:47.440Z,17.10
2018-06-23T08:28:14.992Z,17.40
2018-06-23T08:30:42.524Z,17.60
2018-06-23T08:33:10.084Z,17.80
2018-06-23T08:35:37.637Z,17.80
2018-06-23T08:38:05.226Z,17.70
2018-06-23T08:40:32.784Z,17.90
2018-06-23T08:43:00.330Z,18.00
2018-06-23T08:45:27.881Z,17.80
2018-06-23T08:47:55.436Z,17.60
2018-06-23T08:50:23.737Z,18.30
2018-06-23T08:52:51.304Z,18.30
2018-06-23T08:55:20.209Z,18.30
2018-06-23T08:57:47.781Z,18.30
2018-06-23T09:00:15.331Z,18.50
2018-06-23T09:02:42.869Z,18.60
2018-06-23T09:05:10.538Z,18.50
2018-06-23T09:07:38.159Z,18.60
2018-06-23T09:10:06.724Z,18.90
2018-06-23T09:12:35.151Z,18.90
2018-06-23T09:15:02.729Z,18.90
2018-06-23T09:17:30.281Z,19.00
2018-06-23T09:19:58.805Z,19.00
2018-06-23T09:22:26.336Z,19.00
2018-06-23T09:24:53.884Z,19.00
2018-06-23T09:27:21.416Z,19.00
2018-06-23T09:29:48.968Z,18.90
2018-06-23T09:32:16.520Z,19.00
2018-06-23T09:34:44.408Z,19.10
2018-06-23T09:37:12.915Z,18.80
2018-06-23T09:39:40.468Z,18.80
2018-06-23T09:42:07.993Z,19.00
2018-06-23T09:44:35.566Z,18.70
2018-06-23T09:47:03.140Z,18.60
2018-06-23T09:49:32.655Z,18.50
2018-06-23T09:52:01.147Z,18.70
2018-06-23T09:54:28.677Z,18.90
2018-06-23T09:56:56.236Z,18.80
2018-06-23T09:59:23.757Z,19.10
2018-06-23T10:01:51.379Z,19.30
2018-06-23T10:04:19.200Z,19.60
2018-06-23T10:06:46.745Z,19.50
2018-06-23T10:09:14.305Z,18.90
2018-06-23T10:11:41.836Z,18.80
2018-06-23T10:14:09.388Z,18.80
2018-06-23T10:16:36.928Z,19.00
2018-06-23T10:19:04.491Z,18.90
2018-06-23T10:21:33.033Z,19.20
2018-06-23T10:24:01.333Z,19.30
2018-06-23T10:26:28.894Z,19.30
2018-06-23T10:28:56.437Z,19.20
2018-06-23T10:31:24.988Z,19.10
2018-06-23T10:33:53.310Z,18.90
2018-06-23T10:36:20.862Z,18.90
2018-06-23T10:38:48.541Z,19.30
2018-06-23T10:41:16.019Z,19.80
2018-06-23T10:43:43.568Z,20.00
2018-06-23T10:46:11.121Z,19.60
2018-06-23T10:48:38.675Z,19.40
2018-06-23T10:51:06.209Z,19.60
2018-06-23T10:53:33.764Z,19.60
2018-06-23T10:56:01.316Z,19.10
2018-06-23T10:58:28.890Z,18.90
2018-06-23T11:00:56.441Z,18.90
2018-06-23T11:03:24.009Z,19.10
2018-06-23T11:05:51.705Z,19.30
2018-06-23T11:08:19.271Z,19.70
2018-06-23T11:10:46.875Z,19.80
2018-06-23T11:13:14.466Z,19.90
2018-06-23T11:15:42.028Z,20.00
2018-06-23T11:18:09.557Z,19.90
2018-06-23T11:20:37.113Z,20.20
2018-06-23T11:23:04.692Z,20.40
2018-06-23T11:25:32.259Z,20.50
2018-06-23T11:27:59.824Z,20.80
2018-06-23T11:30:27.357Z,20.70
2018-06-23T11:32:54.912Z,20.40
2018-06-23T11:35:23.205Z,20.40
2018-06-23T11:37:50.736Z,20.40
2018-06-23T11:40:20.024Z,20.50
2018-06-23T11:42:47.548Z,20.50
2018-06-23T11:45:15.108Z,20.40
2018-06-23T11:47:42.665Z,20.90
2018-06-23T11:50:11.205Z,21.20
2018-06-23T11:52:38.737Z,21.60
2018-06-23T11:55:08.256Z,21.40
2018-06-23T11:57:36.553Z,21.70
2018-06-23T12:00:04.132Z,21.70
2018-06-23T12:02:31.669Z,22.10
2018-06-23T12:04:59.196Z,21.50
2018-06-23T12:07:27.525Z,22.10
2018-06-23T12:09:55.052Z,22.10
2018-06-23T12:12:22.604Z,22.40
2018-06-23T12:14:50.135Z,22.40
2018-06-23T12:17:17.696Z,22.30
2018-06-23T12:19:45.240Z,21.90
2018-06-23T12:22:12.788Z,21.90
2018-06-23T12:24:40.342Z,22.10
2018-06-23T12:27:07.909Z,22.30
2018-06-23T12:29:35.461Z,22.40
2018-06-23T12:32:03.001Z,22.30
2018-06-23T12:34:30.560Z,22.40
2018-06-23T12:36:58.105Z,22.90
2018-06-23T12:39:25.680Z,22.90
2018-06-23T12:41:53.235Z,22.50
2018-06-23T12:44:20.830Z,22.40
2018-06-23T12:46:48.357Z,22.50
2018-06-23T12:49:15.907Z,22.70
2018-06-23T12:51:43.473Z,22.20
2018-06-23T12:54:13.621Z,22.20
2018-06-23T12:56:43.080Z,22.80
2018-06-23T12:59:10.668Z,23.00
2018-06-23T13:01:38.222Z,22.90
2018-06-23T13:04:05.753Z,23.60
2018-06-23T13:06:35.073Z,23.00
2018-06-23T13:09:02.633Z,23.00
2018-06-23T13:11:31.138Z,23.10
2018-06-23T13:13:58.704Z,23.50
2018-06-23T13:16:26.228Z,23.60
2018-06-23T13:18:53.829Z,23.80
2018-06-23T13:21:21.359Z,24.70
2018-06-23T13:23:48.924Z,24.60
2018-06-23T13:26:16.469Z,24.00
2018-06-23T13:28:44.049Z,23.90
2018-06-23T13:31:11.623Z,23.50
2018-06-23T13:33:39.167Z,23.20
2018-06-23T13:36:06.732Z,23.70
2018-06-23T13:38:34.256Z,23.90
2018-06-23T13:41:01.789Z,24.10
2018-06-23T13:43:29.352Z,24.50
2018-06-23T13:45:57.680Z,24.60
2018-06-23T13:48:25.217Z,24.60
2018-06-23T13:50:52.793Z,25.30
2018-06-23T13:53:20.319Z,25.00
2018-06-23T13:55:48.661Z,25.20
2018-06-23T13:58:16.224Z,25.20
2018-06-23T14:00:44.528Z,24.80
2018-06-23T14:03:12.832Z,25.00
2018-06-23T14:05:40.393Z,25.00
2018-06-23T14:08:08.865Z,24.60
2018-06-23T14:10:36.407Z,24.30
2018-06-23T14:13:03.967Z,24.30
2018-06-23T14:15:31.492Z,24.90
2018-06-23T14:17:59.020Z,25.20
2018-06-23T14:20:26.598Z,25.90
2018-06-23T14:22:54.125Z,26.30
2018-06-23T14:25:21.701Z,25.50
2018-06-23T14:27:50.195Z,25.60
2018-06-23T14:30:17.724Z,26.50
2018-06-23T14:32:45.284Z,27.70
2018-06-23T14:35:12.839Z,28.80
2018-06-23T14:37:40.370Z,28.00
2018-06-23T14:40:08.748Z,29.50
2018-06-23T14:42:38.253Z,29.50
2018-06-23T14:45:06.555Z,31.20
2018-06-23T14:47:34.117Z,31.10
2018-06-23T14:50:03.192Z,30.50
2018-06-23T14:52:32.047Z,30.90
2018-06-23T14:54:59.609Z,30.00
2018-06-23T14:57:27.197Z,29.30
2018-06-23T14:59:55.497Z,28.20
2018-06-23T15:02:25.002Z,28.30
2018-06-23T15:04:52.547Z,28.40
2018-06-23T15:07:20.104Z,28.70
2018-06-23T15:13:13.400Z,30.10
2018-06-23T15:15:41.861Z,30.80
2018-06-23T15:18:10.226Z,30.30
2018-06-23T15:20:37.747Z,30.30
2018-06-23T15:31:46.126Z,33.80
2018-06-23T15:34:13.691Z,33.70
2018-06-23T15:36:41.413Z,34.30
2018-06-23T15:39:08.948Z,34.40
2018-06-23T15:41:37.269Z,35.20
2018-06-23T15:44:04.795Z,35.10
2018-06-23T15:46:32.347Z,34.80
2018-06-23T15:49:00.692Z,34.10
2018-06-23T15:51:28.216Z,34.10
2018-06-23T15:53:55.744Z,33.10
2018-06-23T15:56:23.292Z,33.90
2018-06-23T15:58:50.820Z,34.50
2018-06-23T16:01:18.374Z,35.60
2018-06-23T16:03:45.883Z,35.70
2018-06-23T16:06:14.171Z,34.50
2018-06-23T16:08:41.852Z,34.50
2018-06-23T16:11:09.401Z,33.90
2018-06-23T16:13:36.949Z,34.60
2018-06-23T16:16:04.477Z,35.20
2018-06-23T16:18:32.032Z,35.20
2018-06-23T16:20:59.599Z,33.90
2018-06-23T16:23:27.435Z,34.20
2018-06-23T16:25:54.975Z,33.80
2018-06-23T16:28:22.503Z,34.50
2018-06-23T16:30:50.828Z,34.30
2018-06-23T16:33:18.344Z,34.30
2018-06-23T16:35:45.921Z,34.40
2018-06-23T16:38:13.892Z,34.30
2018-06-23T16:40:41.450Z,34.20
2018-06-23T16:43:09.008Z,34.50
2018-06-23T16:45:36.753Z,34.10
2018-06-23T16:48:04.312Z,33.80
2018-06-23T16:50:31.840Z,33.20
2018-06-23T16:52:59.389Z,33.70
2018-06-23T16:55:27.908Z,33.50
2018-06-23T16:57:55.470Z,32.50
2018-06-23T17:00:23.979Z,31.90
2018-06-23T17:02:51.531Z,32.40
2018-06-23T17:05:19.071Z,32.10
2018-06-23T17:07:46.621Z,31.80
2018-06-23T17:10:15.860Z,30.00
2018-06-23T17:12:43.380Z,29.90
2018-06-23T17:15:11.746Z,27.30
2018-06-23T17:17:39.285Z,27.20
2018-06-23T17:20:06.845Z,26.50
2018-06-23T17:22:34.377Z,25.90
2018-06-23T17:25:01.913Z,25.30
2018-06-23T17:27:29.484Z,25.00
2018-06-23T17:29:57.018Z,24.80
2018-06-23T17:32:25.341Z,23.80
2018-06-23T17:34:52.892Z,23.80
2018-06-23T17:37:20.446Z,23.20
2018-06-23T17:39:48.011Z,23.00
2018-06-23T17:42:15.544Z,22.70
2018-06-23T17:44:43.074Z,22.60
2018-06-23T17:47:11.404Z,22.00
2018-06-23T17:49:39.607Z,22.00
2018-06-23T17:52:07.176Z,22.00
2018-06-23T17:54:34.700Z,22.00
2018-06-23T17:57:02.269Z,22.00
2018-06-23T17:59:29.832Z,21.70
2018-06-23T18:01:57.356Z,21.60
2018-06-23T18:04:24.888Z,21.50
2018-06-23T18:06:54.254Z,21.40
2018-06-23T18:09:21.788Z,21.30
2018-06-23T18:11:49.347Z,21.30
2018-06-23T18:14:16.877Z,21.00
2018-06-23T18:16:44.408Z,20.80
2018-06-23T18:19:12.731Z,20.70
2018-06-23T18:21:40.256Z,20.70
2018-06-23T18:24:08.560Z,20.80
2018-06-23T18:26:36.119Z,20.80
2018-06-23T18:29:03.640Z,20.80
2018-06-23T18:31:31.985Z,20.60
2018-06-23T18:33:59.530Z,20.50
2018-06-23T18:36:27.052Z,20.50
2018-06-23T18:38:55.368Z,20.40
2018-06-23T18:41:22.893Z,20.40
2018-06-23T18:43:50.418Z,20.30
2018-06-23T18:46:17.972Z,20.20
2018-06-23T18:48:45.504Z,20.10
2018-06-23T18:51:13.060Z,20.00
2018-06-23T18:53:40.590Z,20.00
2018-06-23T18:56:08.145Z,19.90
2018-06-23T18:58:36.472Z,19.60
2018-06-23T19:01:04.002Z,19.60
2018-06-23T19:03:33.497Z,19.60
2018-06-23T19:06:01.177Z,19.50
2018-06-23T19:08:28.718Z,19.40
2018-06-23T19:10:56.292Z,19.30
2018-06-23T19:13:23.825Z,19.20
2018-06-23T19:15:52.348Z,19.20
2018-06-23T19:18:19.868Z,19.10
2018-06-23T19:20:47.400Z,19.00
2018-06-23T19:23:14.956Z,19.00
2018-06-23T19:25:42.480Z,18.80
2018-06-23T19:28:10.053Z,18.60
2018-06-23T19:30:39.618Z,18.40
2018-06-23T19:33:07.175Z,18.20
2018-06-23T19:35:34.779Z,18.10
2018-06-23T19:38:02.342Z,17.90
2018-06-23T19:40:29.898Z,17.80
2018-06-23T19:42:57.451Z,17.60
2018-06-23T19:45:24.968Z,17.50
2018-06-23T19:47:52.494Z,17.40
2018-06-23T19:50:21.985Z,17.30
2018-06-23T19:52:49.508Z,17.20
2018-06-23T19:55:17.068Z,17.10
2018-06-23T19:57:44.619Z,17.10
2018-06-23T20:00:12.141Z,17.00
2018-06-23T20:02:42.425Z,16.90
2018-06-23T20:05:09.980Z,16.90
2018-06-23T20:07:37.656Z,16.90
2018-06-23T20:10:05.188Z,16.80
2018-06-23T20:12:32.764Z,16.80
2018-06-23T20:15:00.303Z,16.70
2018-06-23T20:17:29.850Z,16.60
2018-06-23T20:19:57.383Z,16.50
2018-06-23T20:22:24.908Z,16.60
2018-06-23T20:24:53.224Z,16.50
2018-06-23T20:27:20.807Z,16.40
2018-06-23T20:29:49.182Z,16.40
2018-06-23T20:32:16.725Z,16.40
2018-06-23T20:34:44.279Z,16.30
2018-06-23T20:37:11.830Z,16.40
2018-06-23T20:39:39.378Z,16.40
2018-06-23T20:42:06.908Z,16.40
2018-06-23T20:44:35.202Z,16.30
2018-06-23T20:47:02.796Z,16.30
2018-06-23T20:49:30.462Z,16.30
2018-06-23T20:51:58.029Z,16.30
2018-06-23T20:54:25.593Z,16.30
2018-06-23T20:56:53.130Z,16.30
2018-06-23T20:59:20.694Z,16.10
2018-06-23T21:01:48.221Z,16.00
2018-06-23T21:04:15.751Z,16.10
2018-06-23T21:06:43.306Z,16.10
2018-06-23T21:09:10.832Z,16.10
2018-06-23T21:14:19.692Z,16.00
2018-06-23T21:16:47.225Z,16.00
2018-06-23T21:19:14.848Z,15.80
2018-06-23T21:21:42.433Z,15.70
2018-06-23T21:24:09.992Z,15.70
2018-06-23T21:26:37.525Z,15.80
2018-06-23T21:29:05.083Z,15.90
2018-06-23T21:31:32.632Z,15.90
2018-06-23T21:34:01.121Z,16.00
2018-06-23T21:36:29.444Z,15.70
2018-06-23T21:38:56.972Z,15.70
2018-06-23T21:41:24.547Z,15.70
2018-06-23T21:43:52.203Z,15.60
2018-06-23T21:46:19.757Z,15.60
2018-06-23T21:48:47.294Z,15.70
2018-06-23T21:51:15.584Z,15.80
2018-06-23T21:53:43.154Z,15.80
2018-06-23T21:56:10.710Z,15.90
2018-06-23T21:58:38.343Z,15.70
2018-06-23T22:01:05.935Z,15.80
2018-06-23T22:03:33.803Z,15.60
2018-06-23T22:06:01.360Z,15.60
2018-06-23T22:08:28.918Z,15.60
2018-06-23T22:10:56.496Z,15.70
2018-06-23T22:13:24.160Z,15.80
2018-06-23T22:15:51.719Z,15.90
2018-06-23T22:18:20.207Z,16.00
2018-06-23T22:20:48.755Z,16.00
2018-06-23T22:23:16.276Z,15.90
2018-06-23T22:25:43.844Z,15.80
2018-06-23T22:28:11.392Z,15.70
2018-06-23T22:30:38.940Z,15.70
2018-06-23T22:33:06.460Z,15.70
2018-06-23T22:35:34.017Z,15.70
2018-06-23T22:38:02.535Z,15.60
2018-06-23T22:40:30.077Z,15.60
2018-06-23T22:42:57.605Z,15.50
2018-06-23T22:45:25.179Z,15.40
2018-06-23T22:47:52.704Z,15.30
2018-06-23T22:50:20.230Z,15.30
2018-06-23T22:52:47.791Z,15.30
2018-06-23T22:55:15.314Z,15.20
2018-06-23T22:57:42.894Z,15.20
2018-06-23T23:00:10.427Z,15.10
2018-06-23T23:02:37.987Z,14.80
2018-06-23T23:05:05.518Z,14.60
2018-06-23T23:07:33.078Z,14.50
2018-06-23T23:10:00.613Z,14.20
2018-06-23T23:12:29.674Z,13.90
2018-06-23T23:14:58.174Z,14.00
2018-06-23T23:17:25.724Z,14.00
2018-06-23T23:19:53.255Z,14.00
2018-06-23T23:22:20.793Z,14.10
2018-06-23T23:24:48.350Z,14.10
2018-06-23T23:27:15.880Z,14.10
2018-06-23T23:29:43.444Z,14.10
2018-06-23T23:32:10.965Z,14.00
2018-06-23T23:34:38.495Z,14.10
2018-06-23T23:37:06.055Z,14.20
2018-06-23T23:39:33.581Z,14.30
2018-06-23T23:42:01.136Z,14.20
2018-06-23T23:44:28.684Z,14.20
2018-06-23T23:46:56.972Z,14.00
2018-06-23T23:49:24.495Z,14.00
2018-06-23T23:51:52.051Z,13.90
2018-06-23T23:54:19.583Z,13.90
2018-06-23T23:56:47.144Z,13.90
2018-06-23T23:59:14.693Z,13.80
